Time,TemperatureF,DewpointF,PressureIn,WindDirection,WindDirectionDegrees,WindSpeedMPH,WindSpeedGustMPH,Humidity,HourlyPrecipIn,Conditions,Clouds,dailyrainin,SoftwareType,DateUTC
2013-01-18 00:00:00,33.3,32.5,30.19,NNW,340,0.0,0.0,97,0.01,,---,1.73,VWS V14.01,2013-01-18 05:00:00,
2013-01-18 00:04:00,33.3,32.5,30.19,NNW,340,0.0,0.0,97,0.01,,---,0.00,VWS V14.01,2013-01-18 05:04:00,
2013-01-18 00:05:00,33.3,32.5,30.19,NNW,340,0.0,0.0,97,0.01,,---,0.00,VWS V14.01,2013-01-18 05:05:00,
2013-01-18 00:09:00,33.2,32.4,30.20,NNW,340,0.0,0.0,97,0.01,,---,0.00,VWS V14.01,2013-01-18 05:09:00,
2013-01-18 00:10:00,33.2,32.4,30.20,NNW,340,0.0,0.0,97,0.01,,---,0.00,VWS V14.01,2013-01-18 05:10:00,
2013-01-18 00:14:00,33.1,32.3,30.21,NNW,340,0.0,0.0,97,0.01,,---,0.00,VWS V14.01,2013-01-18 05:14:00,
2013-01-18 00:15:00,33.1,32.3,30.21,NNW,340,0.0,0.0,97,0.01,,---,0.00,VWS V14.01,2013-01-18 05:15:00,
2013-01-18 00:19:00,33.0,32.2,30.20,NNW,340,0.0,0.0,97,0.01,,---,0.00,VWS V14.01,2013-01-18 05:19:00,
2013-01-18 00:20:00,33.0,32.2,30.20,NNW,340,0.0,0.0,97,0.01,,---,0.00,VWS V14.01,2013-01-18 05:20:00,
2013-01-18 00:25:00,33.0,32.2,30.20,NNW,340,0.0,0.0,97,0.01,,---,0.00,VWS V14.01,2013-01-18 05:25:00,
2013-01-18 00:30:00,33.0,32.2,30.21,NNW,340,0.0,0.0,97,0.01,,---,0.00,VWS V14.01,2013-01-18 05:30:00,
2013-01-18 00:34:00,32.9,32.1,30.22,NNW,340,0.0,0.0,97,0.01,,---,0.00,VWS V14.01,2013-01-18 05:34:00,
2013-01-18 00:35:00,32.9,32.1,30.22,NNW,340,0.0,0.0,97,0.01,,---,0.00,VWS V14.01,2013-01-18 05:35:00,
2013-01-18 00:39:00,32.9,32.1,30.21,NNW,340,0.0,0.0,97,0.01,,---,0.00,VWS V14.01,2013-01-18 05:39:00,
2013-01-18 00:40:00,32.9,32.1,30.21,NNW,340,0.0,0.0,97,0.01,,---,0.00,VWS V14.01,2013-01-18 05:40:00,
2013-01-18 00:45:00,32.9,32.1,30.20,NNW,340,0.0,0.0,97,0.00,,---,0.00,VWS V14.01,2013-01-18 05:45:00,
2013-01-18 00:50:00,32.8,32.0,30.21,NNW,340,0.0,0.0,97,0.00,,---,0.00,VWS V14.01,2013-01-18 05:50:00,
2013-01-18 00:55:00,32.7,31.9,30.22,NNW,340,0.0,0.0,97,0.00,,---,0.00,VWS V14.01,2013-01-18 05:55:00,
2013-01-18 01:00:00,32.7,31.9,30.23,NNW,340,0.0,0.0,97,0.00,,---,0.00,VWS V14.01,2013-01-18 06:00:00,
2013-01-18 01:04:00,32.8,32.0,30.23,NNW,340,0.0,0.0,97,0.00,,---,0.00,VWS V14.01,2013-01-18 06:04:00,
2013-01-18 01:05:00,32.8,32.0,30.23,NNW,340,0.0,0.0,97,0.00,,---,0.00,VWS V14.01,2013-01-18 06:05:00,
2013-01-18 01:09:00,33.0,32.2,30.24,NNW,340,0.0,0.0,97,0.00,,---,0.00,VWS V14.01,2013-01-18 06:09:00,
2013-01-18 01:10:00,33.0,32.2,30.24,NNW,340,0.0,0.0,97,0.00,,---,0.00,VWS V14.01,2013-01-18 06:10:00,
2013-01-18 01:14:00,33.2,32.4,30.24,NNW,340,0.0,0.0,97,0.00,,---,0.00,VWS V14.01,2013-01-18 06:14:00,
2013-01-18 01:15:00,33.2,32.4,30.24,NNW,340,0.0,0.0,97,0.00,,---,0.00,VWS V14.01,2013-01-18 06:15:00,
2013-01-18 01:19:00,33.3,32.5,30.25,NNW,340,0.0,0.0,97,0.00,,---,0.00,VWS V14.01,2013-01-18 06:19:00,
2013-01-18 01:20:00,33.3,32.5,30.25,NNW,340,0.0,0.0,97,0.00,,---,0.00,VWS V14.01,2013-01-18 06:20:00,
2013-01-18 01:25:00,33.3,32.5,30.25,NNW,340,0.0,0.0,97,0.00,,---,0.00,VWS V14.01,2013-01-18 06:25:00,
2013-01-18 01:30:00,33.1,32.3,30.24,NNW,340,0.0,0.0,97,0.00,,---,0.00,VWS V14.01,2013-01-18 06:30:00,
2013-01-18 01:35:00,32.9,32.1,30.25,NNW,340,0.0,0.0,97,0.00,,---,0.00,VWS V14.01,2013-01-18 06:35:00,
2013-01-18 01:40:00,33.0,32.2,30.24,NNW,340,0.0,0.0,97,0.00,,---,0.00,VWS V14.01,2013-01-18 06:40:00,
2013-01-18 01:45:00,33.4,32.6,30.25,NNW,336,0.0,0.0,97,0.00,,---,0.00,VWS V14.01,2013-01-18 06:45:00,
2013-01-18 01:50:00,33.8,33.0,30.25,NNW,336,0.0,0.0,97,0.00,,---,0.00,VWS V14.01,2013-01-18 06:50:00,
2013-01-18 01:55:00,33.9,32.9,30.25,NNW,336,0.0,0.0,96,0.00,,---,0.00,VWS V14.01,2013-01-18 06:55:00,
2013-01-18 02:00:00,34.0,33.0,30.25,NNW,336,0.0,0.0,96,0.00,,---,0.00,VWS V14.01,2013-01-18 07:00:00,
2013-01-18 02:05:00,34.1,32.8,30.25,NNW,327,0.0,0.0,95,0.00,,---,0.00,VWS V14.01,2013-01-18 07:05:00,
2013-01-18 02:10:00,34.5,33.0,30.26,NW,308,0.0,0.0,94,0.00,,---,0.00,VWS V14.01,2013-01-18 07:10:00,
2013-01-18 02:15:00,34.8,32.5,30.26,NW,305,0.0,0.0,91,0.00,,---,0.00,VWS V14.01,2013-01-18 07:15:00,
2013-01-18 02:20:00,35.0,32.6,30.26,NW,313,0.0,0.0,91,0.00,,---,0.00,VWS V14.01,2013-01-18 07:20:00,
2013-01-18 02:24:00,35.3,32.1,30.26,WNW,286,0.0,0.0,88,0.01,,---,0.01,VWS V14.01,2013-01-18 07:24:00,
2013-01-18 02:25:00,35.3,32.1,30.26,WNW,286,0.0,0.0,88,0.01,,---,0.01,VWS V14.01,2013-01-18 07:25:00,
2013-01-18 02:29:00,35.5,31.7,30.27,NW,308,0.0,0.0,86,0.01,,---,0.01,VWS V14.01,2013-01-18 07:29:00,
2013-01-18 02:30:00,35.5,31.7,30.27,NW,308,0.0,0.0,86,0.01,,---,0.01,VWS V14.01,2013-01-18 07:30:00,
2013-01-18 02:34:00,35.7,31.6,30.27,WNW,293,0.0,0.0,85,0.01,,---,0.01,VWS V14.01,2013-01-18 07:34:00,
2013-01-18 02:35:00,35.7,31.6,30.27,WNW,293,0.0,0.0,85,0.01,,---,0.01,VWS V14.01,2013-01-18 07:35:00,
2013-01-18 02:39:00,35.8,31.5,30.28,NW,309,0.0,0.0,84,0.01,,---,0.01,VWS V14.01,2013-01-18 07:39:00,
2013-01-18 02:40:00,35.8,31.5,30.28,NW,309,0.0,0.0,84,0.01,,---,0.01,VWS V14.01,2013-01-18 07:40:00,
2013-01-18 02:44:00,35.7,31.4,30.28,NW,309,0.0,0.0,84,0.01,,---,0.01,VWS V14.01,2013-01-18 07:44:00,
2013-01-18 02:45:00,35.7,31.4,30.28,NW,309,0.0,0.0,84,0.01,,---,0.01,VWS V14.01,2013-01-18 07:45:00,
2013-01-18 02:49:00,35.4,31.4,30.28,NNW,346,0.0,0.0,85,0.01,,---,0.01,VWS V14.01,2013-01-18 07:49:00,
2013-01-18 02:50:00,35.4,31.4,30.28,NNW,346,0.0,0.0,85,0.01,,---,0.01,VWS V14.01,2013-01-18 07:50:00,
2013-01-18 02:55:00,35.4,31.1,30.28,WNW,300,0.0,0.0,84,0.01,,---,0.01,VWS V14.01,2013-01-18 07:55:00,
2013-01-18 03:00:00,35.5,31.1,30.28,NW,325,0.0,0.0,84,0.01,,---,0.01,VWS V14.01,2013-01-18 08:00:00,
2013-01-18 03:04:00,35.5,30.6,30.28,NW,325,0.0,0.0,82,0.01,,---,0.01,VWS V14.01,2013-01-18 08:04:00,
2013-01-18 03:05:00,35.5,30.6,30.28,NW,325,0.0,0.0,82,0.01,,---,0.01,VWS V14.01,2013-01-18 08:05:00,
2013-01-18 03:09:00,35.5,30.6,30.29,North,9,0.0,0.0,82,0.01,,---,0.01,VWS V14.01,2013-01-18 08:09:00,
2013-01-18 03:10:00,35.5,30.6,30.29,North,9,0.0,0.0,82,0.01,,---,0.01,VWS V14.01,2013-01-18 08:10:00,
2013-01-18 03:15:00,35.3,31.0,30.29,North,360,0.0,0.0,84,0.01,,---,0.01,VWS V14.01,2013-01-18 08:15:00,
2013-01-18 03:20:00,35.0,31.0,30.29,NNE,25,0.0,0.0,85,0.01,,---,0.01,VWS V14.01,2013-01-18 08:20:00,
2013-01-18 03:25:00,34.6,30.6,30.28,NNE,24,0.0,0.0,85,0.01,,---,0.01,VWS V14.01,2013-01-18 08:25:00,
2013-01-18 03:30:00,34.5,30.5,30.29,NNE,28,0.0,0.0,85,0.00,,---,0.01,VWS V14.01,2013-01-18 08:30:00,
2013-01-18 03:35:00,34.2,31.0,30.29,NNE,28,0.0,0.0,88,0.00,,---,0.01,VWS V14.01,2013-01-18 08:35:00,
2013-01-18 03:40:00,33.8,30.9,30.29,NNE,28,0.0,0.0,89,0.00,,---,0.01,VWS V14.01,2013-01-18 08:40:00,
2013-01-18 03:45:00,33.4,30.8,30.29,NNE,28,0.0,0.0,90,0.00,,---,0.01,VWS V14.01,2013-01-18 08:45:00,
2013-01-18 03:50:00,33.2,30.6,30.30,NNE,28,0.0,0.0,90,0.00,,---,0.01,VWS V14.01,2013-01-18 08:50:00,
2013-01-18 03:54:00,33.1,30.5,30.29,NNE,29,0.0,0.0,90,0.00,,---,0.01,VWS V14.01,2013-01-18 08:54:00,
2013-01-18 03:55:00,33.1,30.5,30.29,NNE,29,0.0,0.0,90,0.00,,---,0.01,VWS V14.01,2013-01-18 08:55:00,
2013-01-18 04:00:00,33.0,30.4,30.30,NNE,29,0.0,0.0,90,0.00,,---,0.01,VWS V14.01,2013-01-18 09:00:00,
2013-01-18 04:05:00,33.2,29.8,30.29,North,351,0.0,0.0,87,0.00,,---,0.01,VWS V14.01,2013-01-18 09:05:00,
2013-01-18 04:10:00,33.5,29.8,30.30,NNW,348,0.0,0.0,86,0.00,,---,0.01,VWS V14.01,2013-01-18 09:10:00,
2013-01-18 04:15:00,33.8,29.8,30.30,WNW,294,0.0,0.0,85,0.00,,---,0.01,VWS V14.01,2013-01-18 09:15:00,
2013-01-18 04:20:00,34.1,29.8,30.31,NNW,347,0.0,0.0,84,0.00,,---,0.01,VWS V14.01,2013-01-18 09:20:00,
2013-01-18 04:25:00,34.0,29.7,30.31,North,355,0.0,0.0,84,0.00,,---,0.01,VWS V14.01,2013-01-18 09:25:00,
2013-01-18 04:30:00,34.1,29.5,30.30,NNE,18,0.0,0.0,83,0.00,,---,0.01,VWS V14.01,2013-01-18 09:30:00,
2013-01-18 04:35:00,34.3,29.4,30.30,North,9,0.0,0.0,82,0.00,,---,0.01,VWS V14.01,2013-01-18 09:35:00,
2013-01-18 04:40:00,34.2,29.6,30.30,North,5,0.0,0.0,83,0.00,,---,0.01,VWS V14.01,2013-01-18 09:40:00,
2013-01-18 04:45:00,34.3,29.1,30.30,North,9,0.0,0.0,81,0.00,,---,0.01,VWS V14.01,2013-01-18 09:45:00,
2013-01-18 04:50:00,34.3,29.4,30.30,North,355,0.0,0.0,82,0.00,,---,0.01,VWS V14.01,2013-01-18 09:50:00,
2013-01-18 04:55:00,34.3,29.1,30.30,North,349,0.0,0.0,81,0.00,,---,0.01,VWS V14.01,2013-01-18 09:55:00,
2013-01-18 05:00:00,34.2,29.0,30.31,NNE,31,0.0,0.0,81,0.00,,---,0.01,VWS V14.01,2013-01-18 10:00:00,
2013-01-18 05:05:00,34.1,28.9,30.31,NNW,342,0.0,0.0,81,0.00,,---,0.01,VWS V14.01,2013-01-18 10:05:00,
2013-01-18 05:09:00,34.2,29.0,30.31,North,9,0.0,0.0,81,0.00,,---,0.01,VWS V14.01,2013-01-18 10:09:00,
2013-01-18 05:10:00,30.6,28.6,30.35,North,350,0.0,0.0,92,0.00,,---,0.01,VWS V14.01,2013-01-18 10:10:00,
2013-01-18 05:15:00,34.1,28.9,30.31,North,350,0.0,0.0,81,0.00,,---,0.01,VWS V14.01,2013-01-18 10:15:00,
2013-01-18 05:20:00,33.9,28.7,30.31,North,350,0.0,0.0,81,0.00,,---,0.01,VWS V14.01,2013-01-18 10:20:00,
2013-01-18 05:25:00,33.8,28.9,30.32,North,350,0.0,0.0,82,0.00,,---,0.01,VWS V14.01,2013-01-18 10:25:00,
2013-01-18 05:30:00,33.5,29.2,30.32,North,350,0.0,0.0,84,0.00,,---,0.01,VWS V14.01,2013-01-18 10:30:00,
2013-01-18 05:34:00,33.1,29.4,30.32,North,350,0.0,0.0,86,0.00,,---,0.01,VWS V14.01,2013-01-18 10:34:00,
2013-01-18 05:35:00,33.1,29.4,30.32,North,350,0.0,0.0,86,0.00,,---,0.01,VWS V14.01,2013-01-18 10:35:00,
2013-01-18 05:40:00,32.7,29.5,30.33,North,350,0.0,0.0,88,0.00,,---,0.01,VWS V14.01,2013-01-18 10:40:00,
2013-01-18 05:45:00,32.2,29.3,30.33,North,350,0.0,0.0,89,0.00,,---,0.01,VWS V14.01,2013-01-18 10:45:00,
2013-01-18 05:49:00,31.9,29.3,30.34,North,350,0.0,0.0,90,0.00,,---,0.01,VWS V14.01,2013-01-18 10:49:00,
2013-01-18 05:50:00,31.9,29.3,30.34,North,350,0.0,0.0,90,0.00,,---,0.01,VWS V14.01,2013-01-18 10:50:00,
2013-01-18 05:55:00,31.5,29.2,30.34,North,350,0.0,0.0,91,0.00,,---,0.01,VWS V14.01,2013-01-18 10:55:00,
2013-01-18 06:00:00,28.8,27.3,30.38,North,350,0.0,0.0,94,0.00,,---,0.01,VWS V14.01,2013-01-18 11:00:00,
2013-01-18 06:04:00,31.0,28.7,30.34,North,350,0.0,0.0,91,0.00,,---,0.01,VWS V14.01,2013-01-18 11:04:00,
2013-01-18 06:05:00,31.0,28.7,30.34,North,350,0.0,0.0,91,0.00,,---,0.01,VWS V14.01,2013-01-18 11:05:00,
2013-01-18 06:09:00,30.6,28.6,30.35,North,350,0.0,0.0,92,0.00,,---,0.01,VWS V14.01,2013-01-18 11:09:00,
2013-01-18 06:10:00,30.6,28.6,30.35,North,350,0.0,0.0,92,0.00,,---,0.01,VWS V14.01,2013-01-18 11:10:00,
2013-01-18 06:15:00,30.4,28.4,30.35,North,350,0.0,0.0,92,0.00,,---,0.01,VWS V14.01,2013-01-18 11:15:00,
2013-01-18 06:20:00,30.1,28.3,30.36,North,350,0.0,0.0,93,0.00,,---,0.01,VWS V14.01,2013-01-18 11:20:00,
2013-01-18 06:25:00,29.9,28.1,30.36,North,350,0.0,0.0,93,0.00,,---,0.01,VWS V14.01,2013-01-18 11:25:00,
2013-01-18 06:29:00,29.7,27.9,30.36,North,350,0.0,0.0,93,0.00,,---,0.01,VWS V14.01,2013-01-18 11:29:00,
2013-01-18 06:30:00,29.7,27.9,30.36,North,350,0.0,0.0,93,0.00,,---,0.01,VWS V14.01,2013-01-18 11:30:00,
2013-01-18 06:35:00,29.6,28.1,30.37,North,350,0.0,0.0,94,0.00,,---,0.01,VWS V14.01,2013-01-18 11:35:00,
2013-01-18 06:40:00,29.4,27.9,30.37,North,350,0.0,0.0,94,0.00,,---,0.01,VWS V14.01,2013-01-18 11:40:00,
2013-01-18 06:45:00,29.1,27.6,30.37,North,350,0.0,0.0,94,0.00,,---,0.01,VWS V14.01,2013-01-18 11:45:00,
2013-01-18 06:50:00,29.0,27.5,30.37,North,350,0.0,0.0,94,0.00,,---,0.01,VWS V14.01,2013-01-18 11:50:00,
2013-01-18 06:55:00,29.0,27.5,30.38,North,350,0.0,0.0,94,0.00,,---,0.01,VWS V14.01,2013-01-18 11:55:00,
2013-01-18 07:00:00,28.8,27.3,30.38,North,350,0.0,0.0,94,0.00,,---,0.01,VWS V14.01,2013-01-18 12:00:00,
2013-01-18 07:05:00,28.8,27.5,30.38,North,350,0.0,0.0,95,0.00,,---,0.01,VWS V14.01,2013-01-18 12:05:00,
2013-01-18 07:10:00,28.8,27.5,30.39,North,350,0.0,0.0,95,0.00,,---,0.01,VWS V14.01,2013-01-18 12:10:00,
2013-01-18 07:15:00,28.6,27.4,30.39,North,350,0.0,0.0,95,0.00,,---,0.01,VWS V14.01,2013-01-18 12:15:00,
2013-01-18 07:20:00,28.0,26.8,30.43,North,350,0.0,0.0,95,0.00,,---,0.01,VWS V14.01,2013-01-18 12:20:00,
2013-01-18 07:24:00,28.4,27.1,30.40,North,350,0.0,0.0,95,0.00,,---,0.01,VWS V14.01,2013-01-18 12:24:00,
2013-01-18 07:25:00,28.4,27.1,30.40,North,350,0.0,0.0,95,0.00,,---,0.01,VWS V14.01,2013-01-18 12:25:00,
2013-01-18 07:30:00,28.2,27.0,30.40,North,350,0.0,0.0,95,0.00,,---,0.01,VWS V14.01,2013-01-18 12:30:00,
2013-01-18 07:35:00,28.2,27.0,30.40,North,350,0.0,0.0,95,0.00,,---,0.01,VWS V14.01,2013-01-18 12:35:00,
2013-01-18 07:39:00,28.1,26.9,30.40,North,350,0.0,0.0,95,0.00,,---,0.01,VWS V14.01,2013-01-18 12:39:00,
2013-01-18 07:40:00,28.1,26.9,30.40,North,350,0.0,0.0,95,0.00,,---,0.01,VWS V14.01,2013-01-18 12:40:00,
2013-01-18 07:44:00,28.1,26.9,30.40,North,350,0.0,0.0,95,0.00,,---,0.01,VWS V14.01,2013-01-18 12:44:00,
2013-01-18 07:45:00,28.1,26.9,30.40,North,350,0.0,0.0,95,0.00,,---,0.01,VWS V14.01,2013-01-18 12:45:00,
2013-01-18 07:50:00,28.1,26.9,30.41,North,350,0.0,0.0,95,0.00,,---,0.01,VWS V14.01,2013-01-18 12:50:00,
2013-01-18 07:55:00,28.0,26.8,30.41,North,350,0.0,0.0,95,0.00,,---,0.01,VWS V14.01,2013-01-18 12:55:00,
2013-01-18 08:00:00,28.0,26.8,30.41,North,350,0.0,0.0,95,0.00,,---,0.01,VWS V14.01,2013-01-18 13:00:00,
2013-01-18 08:05:00,28.0,26.8,30.42,North,350,0.0,0.0,95,0.00,,---,0.01,VWS V14.01,2013-01-18 13:05:00,
2013-01-18 08:09:00,28.0,26.8,30.42,North,350,0.0,0.0,95,0.00,,---,0.01,VWS V14.01,2013-01-18 13:09:00,
2013-01-18 08:10:00,28.0,26.8,30.42,North,350,0.0,0.0,95,0.00,,---,0.01,VWS V14.01,2013-01-18 13:10:00,
2013-01-18 08:14:00,28.0,26.8,30.42,North,350,0.0,0.0,95,0.00,,---,0.01,VWS V14.01,2013-01-18 13:14:00,
2013-01-18 08:15:00,28.0,26.8,30.42,North,350,0.0,0.0,95,0.00,,---,0.01,VWS V14.01,2013-01-18 13:15:00,
2013-01-18 08:20:00,28.0,26.8,30.43,North,350,0.0,0.0,95,0.00,,---,0.01,VWS V14.01,2013-01-18 13:20:00,
2013-01-18 08:25:00,28.2,27.2,30.43,North,350,0.0,0.0,96,0.00,,---,0.01,VWS V14.01,2013-01-18 13:25:00,
2013-01-18 08:30:00,28.5,27.5,30.43,North,350,0.0,0.0,96,0.00,,---,0.01,VWS V14.01,2013-01-18 13:30:00,
2013-01-18 08:35:00,29.1,28.1,30.44,North,350,0.0,0.0,96,0.00,,---,0.01,VWS V14.01,2013-01-18 13:35:00,
2013-01-18 08:39:00,29.4,28.4,30.44,North,350,0.0,0.0,96,0.00,,---,0.01,VWS V14.01,2013-01-18 13:39:00,
2013-01-18 08:40:00,29.4,28.4,30.44,North,350,0.0,0.0,96,0.00,,---,0.01,VWS V14.01,2013-01-18 13:40:00,
2013-01-18 08:44:00,29.8,28.5,30.44,WNW,300,0.0,0.0,95,0.00,,---,0.01,VWS V14.01,2013-01-18 13:44:00,
2013-01-18 08:45:00,29.8,28.5,30.44,WNW,300,0.0,0.0,95,0.00,,---,0.01,VWS V14.01,2013-01-18 13:45:00,
2013-01-18 08:50:00,30.3,28.8,30.45,WNW,300,0.0,0.0,94,0.00,,---,0.01,VWS V14.01,2013-01-18 13:50:00,
2013-01-18 08:55:00,31.0,28.7,30.45,WNW,300,0.0,0.0,91,0.00,,---,0.01,VWS V14.01,2013-01-18 13:55:00,
2013-01-18 09:00:00,31.5,28.9,30.45,WNW,300,0.0,0.0,90,0.00,,---,0.01,VWS V14.01,2013-01-18 14:00:00,
2013-01-18 09:05:00,31.7,29.6,30.46,SW,230,0.0,0.0,92,0.00,,---,0.01,VWS V14.01,2013-01-18 14:05:00,
2013-01-18 09:10:00,32.0,29.9,30.46,SSW,208,0.0,0.0,92,0.00,,---,0.01,VWS V14.01,2013-01-18 14:10:00,
2013-01-18 09:15:00,32.2,30.4,30.47,SSW,208,0.0,0.0,93,0.00,,---,0.01,VWS V14.01,2013-01-18 14:15:00,
2013-01-18 09:20:00,35.8,30.9,30.50,SW,234,0.0,0.0,82,0.00,,---,0.01,VWS V14.01,2013-01-18 14:20:00,
2013-01-18 09:24:00,32.5,30.7,30.48,SSW,208,0.0,0.0,93,0.00,,---,0.01,VWS V14.01,2013-01-18 14:24:00,
2013-01-18 09:25:00,32.5,30.7,30.48,SSW,208,0.0,0.0,93,0.00,,---,0.01,VWS V14.01,2013-01-18 14:25:00,
2013-01-18 09:29:00,32.8,30.5,30.48,SSW,208,0.0,0.0,91,0.00,,---,0.01,VWS V14.01,2013-01-18 14:29:00,
2013-01-18 09:30:00,32.8,30.5,30.48,SSW,208,0.0,0.0,91,0.00,,---,0.01,VWS V14.01,2013-01-18 14:30:00,
2013-01-18 09:35:00,33.1,30.5,30.49,SSW,208,0.0,0.0,90,0.00,,---,0.01,VWS V14.01,2013-01-18 14:35:00,
2013-01-18 09:40:00,33.4,30.5,30.49,SSW,208,0.0,0.0,89,0.00,,---,0.01,VWS V14.01,2013-01-18 14:40:00,
2013-01-18 09:45:00,33.9,30.7,30.50,SSW,208,0.0,0.0,88,0.00,,---,0.01,VWS V14.01,2013-01-18 14:45:00,
2013-01-18 09:49:00,34.3,31.7,30.50,SSW,208,0.0,0.0,90,0.00,,---,0.01,VWS V14.01,2013-01-18 14:49:00,
2013-01-18 09:50:00,34.3,31.7,30.50,SSW,208,0.0,0.0,90,0.00,,---,0.01,VWS V14.01,2013-01-18 14:50:00,
2013-01-18 09:55:00,34.5,31.6,30.50,SSW,208,0.0,0.0,89,0.00,,---,0.01,VWS V14.01,2013-01-18 14:55:00,
2013-01-18 10:00:00,34.8,32.5,30.50,SSW,208,0.0,0.0,91,0.00,,---,0.01,VWS V14.01,2013-01-18 15:00:00,
2013-01-18 10:05:00,35.0,33.2,30.50,SSW,208,0.0,0.0,93,0.00,,---,0.01,VWS V14.01,2013-01-18 15:05:00,
2013-01-18 10:10:00,35.1,33.0,30.51,SSW,208,0.0,0.0,92,0.00,,---,0.01,VWS V14.01,2013-01-18 15:10:00,
2013-01-18 10:15:00,35.3,31.2,30.50,SSW,208,0.0,0.0,85,0.00,,---,0.01,VWS V14.01,2013-01-18 15:15:00,
2013-01-18 10:20:00,35.8,30.9,30.50,SW,234,0.0,0.0,82,0.00,,---,0.01,VWS V14.01,2013-01-18 15:20:00,
2013-01-18 10:25:00,36.1,30.8,30.50,WSW,248,0.0,1.0,81,0.00,,---,0.01,VWS V14.01,2013-01-18 15:25:00,
2013-01-18 10:30:00,36.6,30.4,30.50,NW,316,1.0,3.0,78,0.00,,---,0.01,VWS V14.01,2013-01-18 15:30:00,
2013-01-18 10:34:00,37.0,31.1,30.50,NW,318,3.0,3.0,79,0.00,,---,0.01,VWS V14.01,2013-01-18 15:34:00,
2013-01-18 10:35:00,37.0,31.1,30.50,NW,318,3.0,3.0,79,0.00,,---,0.01,VWS V14.01,2013-01-18 15:35:00,
2013-01-18 10:39:00,37.2,30.4,30.50,NW,318,1.0,3.0,76,0.00,,---,0.01,VWS V14.01,2013-01-18 15:39:00,
2013-01-18 10:40:00,37.2,30.3,30.50,NW,318,1.0,3.0,76,0.00,,---,0.01,VWS V14.01,2013-01-18 15:40:00,
2013-01-18 10:44:00,37.6,29.4,30.51,NW,319,2.0,5.0,72,0.00,,---,0.01,VWS V14.01,2013-01-18 15:44:00,
2013-01-18 10:45:00,37.6,29.4,30.51,NW,319,2.0,5.0,72,0.00,,---,0.01,VWS V14.01,2013-01-18 15:45:00,
2013-01-18 10:49:00,37.9,30.0,30.51,NNW,341,1.0,4.0,73,0.00,,---,0.01,VWS V14.01,2013-01-18 15:49:00,
2013-01-18 10:50:00,37.9,30.0,30.51,NNW,341,1.0,4.0,73,0.00,,---,0.01,VWS V14.01,2013-01-18 15:50:00,
2013-01-18 10:54:00,38.0,29.1,30.51,NNW,344,0.0,3.0,70,0.00,,---,0.01,VWS V14.01,2013-01-18 15:54:00,
2013-01-18 10:55:00,38.0,29.1,30.51,NNW,344,0.0,3.0,70,0.00,,---,0.01,VWS V14.01,2013-01-18 15:55:00,
2013-01-18 11:00:00,38.3,29.4,30.51,NW,316,1.0,5.0,70,0.00,,---,0.01,VWS V14.01,2013-01-18 16:00:00,
2013-01-18 11:05:00,38.5,28.9,30.51,NNW,333,3.0,6.0,68,0.01,,---,0.02,VWS V14.01,2013-01-18 16:05:00,
2013-01-18 11:09:00,38.6,27.5,30.51,North,355,4.0,7.0,64,0.01,,---,0.02,VWS V14.01,2013-01-18 16:09:00,
2013-01-18 11:10:00,38.6,27.5,30.51,North,355,4.0,7.0,64,0.01,,---,0.02,VWS V14.01,2013-01-18 16:10:00,
2013-01-18 11:15:00,38.9,27.8,30.51,NNW,327,7.0,7.0,64,0.01,,---,0.02,VWS V14.01,2013-01-18 16:15:00,
2013-01-18 11:20:00,39.1,28.0,30.51,NNW,327,1.0,7.0,64,0.01,,---,0.02,VWS V14.01,2013-01-18 16:20:00,
2013-01-18 11:25:00,39.3,28.2,30.51,North,5,4.0,5.0,64,0.01,,---,0.02,VWS V14.01,2013-01-18 16:25:00,
2013-01-18 11:30:00,39.4,28.6,30.51,North,350,3.0,5.0,65,0.01,,---,0.02,VWS V14.01,2013-01-18 16:30:00,
2013-01-18 11:34:00,39.6,28.4,30.51,NNW,336,3.0,4.0,64,0.01,,---,0.02,VWS V14.01,2013-01-18 16:34:00,
2013-01-18 11:35:00,39.6,28.4,30.51,NNW,336,3.0,4.0,64,0.01,,---,0.02,VWS V14.01,2013-01-18 16:35:00,
2013-01-18 11:39:00,39.7,27.4,30.51,NNW,329,1.0,5.0,61,0.01,,---,0.02,VWS V14.01,2013-01-18 16:39:00,
2013-01-18 11:40:00,39.7,27.4,30.51,NNW,329,1.0,5.0,61,0.01,,---,0.02,VWS V14.01,2013-01-18 16:40:00,
2013-01-18 11:44:00,39.9,28.7,30.51,NW,324,0.0,4.0,64,0.01,,---,0.02,VWS V14.01,2013-01-18 16:44:00,
2013-01-18 11:45:00,39.9,28.7,30.51,NW,324,0.0,4.0,64,0.01,,---,0.02,VWS V14.01,2013-01-18 16:45:00,
2013-01-18 11:50:00,40.1,28.5,30.51,NW,321,2.0,4.0,63,0.01,,---,0.02,VWS V14.01,2013-01-18 16:50:00,
2013-01-18 11:55:00,40.1,28.5,30.51,WNW,290,2.0,5.0,63,0.01,,---,0.02,VWS V14.01,2013-01-18 16:55:00,
2013-01-18 12:00:00,40.3,27.9,30.51,North,9,3.0,4.0,61,0.02,,---,0.03,VWS V14.01,2013-01-18 17:00:00,
2013-01-18 12:05:00,40.5,27.7,30.51,WNW,286,3.0,4.0,60,0.03,,---,0.04,VWS V14.01,2013-01-18 17:05:00,
2013-01-18 12:10:00,40.6,27.8,30.51,WNW,289,3.0,5.0,60,0.03,,---,0.05,VWS V14.01,2013-01-18 17:10:00,
2013-01-18 12:15:00,40.8,26.8,30.51,North,355,4.0,6.0,57,0.03,,---,0.05,VWS V14.01,2013-01-18 17:15:00,
2013-01-18 12:20:00,40.9,26.4,30.51,North,5,7.0,7.0,56,0.04,,---,0.06,VWS V14.01,2013-01-18 17:20:00,
2013-01-18 12:25:00,41.1,27.5,30.50,North,355,1.0,7.0,58,0.05,,---,0.07,VWS V14.01,2013-01-18 17:25:00,
2013-01-18 12:30:00,43.3,30.0,30.49,North,10,4.0,4.0,59,0.06,,---,0.13,VWS V14.01,2013-01-18 17:30:00,
2013-01-18 12:35:00,41.5,27.0,30.50,NNW,333,2.0,6.0,56,0.06,,---,0.08,VWS V14.01,2013-01-18 17:35:00,
2013-01-18 12:40:00,41.6,26.6,30.50,WNW,292,2.0,4.0,55,0.06,,---,0.08,VWS V14.01,2013-01-18 17:40:00,
2013-01-18 12:45:00,41.9,28.2,30.50,North,355,3.0,6.0,58,0.07,,---,0.09,VWS V14.01,2013-01-18 17:45:00,
2013-01-18 12:50:00,43.9,28.4,30.49,SSW,212,0.0,2.0,54,0.06,,---,0.15,VWS V14.01,2013-01-18 17:50:00,
2013-01-18 12:54:00,42.1,26.2,30.50,NNW,335,0.0,4.0,53,0.08,,---,0.10,VWS V14.01,2013-01-18 17:54:00,
2013-01-18 12:55:00,42.1,26.2,30.50,NNW,335,0.0,4.0,53,0.08,,---,0.10,VWS V14.01,2013-01-18 17:55:00,
2013-01-18 12:59:00,42.4,27.8,30.49,SE,130,0.0,5.0,56,0.08,,---,0.10,VWS V14.01,2013-01-18 17:59:00,
2013-01-18 13:00:00,42.4,27.8,30.49,SE,130,0.0,5.0,56,0.08,,---,0.10,VWS V14.01,2013-01-18 18:00:00,
2013-01-18 13:05:00,42.6,27.1,30.49,NW,325,0.0,5.0,54,0.08,,---,0.11,VWS V14.01,2013-01-18 18:05:00,
2013-01-18 13:09:00,42.8,27.8,30.49,NNE,32,1.0,2.0,55,0.08,,---,0.12,VWS V14.01,2013-01-18 18:09:00,
2013-01-18 13:10:00,42.8,27.8,30.49,NNE,32,1.0,2.0,55,0.08,,---,0.12,VWS V14.01,2013-01-18 18:10:00,
2013-01-18 13:15:00,42.8,26.9,30.49,NNE,32,0.0,2.0,53,0.07,,---,0.12,VWS V14.01,2013-01-18 18:15:00,
2013-01-18 13:20:00,43.1,28.0,30.50,North,9,0.0,4.0,55,0.08,,---,0.13,VWS V14.01,2013-01-18 18:20:00,
2013-01-18 13:24:00,43.3,26.4,30.50,South,171,2.0,5.0,51,0.07,,---,0.13,VWS V14.01,2013-01-18 18:24:00,
2013-01-18 13:25:00,43.3,26.4,30.50,South,171,2.0,5.0,51,0.07,,---,0.13,VWS V14.01,2013-01-18 18:25:00,
2013-01-18 13:29:00,43.3,30.0,30.49,North,10,4.0,4.0,59,0.06,,---,0.13,VWS V14.01,2013-01-18 18:29:00,
2013-01-18 13:30:00,43.3,30.0,30.49,North,10,4.0,4.0,59,0.06,,---,0.13,VWS V14.01,2013-01-18 18:30:00,
2013-01-18 13:35:00,43.2,27.7,30.50,North,5,3.0,4.0,54,0.07,,---,0.14,VWS V14.01,2013-01-18 18:35:00,
2013-01-18 13:40:00,43.4,28.8,30.50,North,355,1.0,3.0,56,0.06,,---,0.14,VWS V14.01,2013-01-18 18:40:00,
2013-01-18 13:45:00,43.8,28.2,30.50,SSW,212,0.0,4.0,54,0.06,,---,0.14,VWS V14.01,2013-01-18 18:45:00,
2013-01-18 13:50:00,43.9,28.4,30.49,SSW,212,0.0,2.0,54,0.06,,---,0.15,VWS V14.01,2013-01-18 18:50:00,
2013-01-18 13:55:00,44.1,29.4,30.49,SSW,212,0.0,1.0,56,0.06,,---,0.15,VWS V14.01,2013-01-18 18:55:00,
2013-01-18 13:59:00,44.6,29.9,30.49,SSW,212,0.0,0.0,56,0.06,,---,0.16,VWS V14.01,2013-01-18 18:59:00,
2013-01-18 14:00:00,44.6,29.9,30.49,SSW,212,0.0,0.0,56,0.06,,---,0.16,VWS V14.01,2013-01-18 19:00:00,
2013-01-18 14:04:00,44.9,30.2,30.49,SSW,212,0.0,1.0,56,0.06,,---,0.16,VWS V14.01,2013-01-18 19:04:00,
2013-01-18 14:05:00,44.9,30.2,30.49,SSW,212,0.0,1.0,56,0.06,,---,0.16,VWS V14.01,2013-01-18 19:05:00,
2013-01-18 14:09:00,45.2,30.5,30.49,SSW,212,0.0,0.0,56,0.05,,---,0.16,VWS V14.01,2013-01-18 19:09:00,
2013-01-18 14:10:00,45.2,30.5,30.49,SSW,212,0.0,0.0,56,0.05,,---,0.16,VWS V14.01,2013-01-18 19:10:00,
2013-01-18 14:14:00,45.1,30.4,30.49,SSW,212,0.0,2.0,56,0.04,,---,0.16,VWS V14.01,2013-01-18 19:14:00,
2013-01-18 14:15:00,45.1,30.4,30.49,SSW,212,0.0,2.0,56,0.04,,---,0.16,VWS V14.01,2013-01-18 19:15:00,
2013-01-18 14:19:00,44.9,31.0,30.49,SSW,204,1.0,3.0,58,0.05,,---,0.17,VWS V14.01,2013-01-18 19:19:00,
2013-01-18 14:20:00,44.9,31.0,30.49,SSW,204,1.0,3.0,58,0.05,,---,0.17,VWS V14.01,2013-01-18 19:20:00,
2013-01-18 14:24:00,44.5,31.1,30.49,NNE,14,0.0,4.0,59,0.04,,---,0.17,VWS V14.01,2013-01-18 19:24:00,
2013-01-18 14:25:00,44.5,31.1,30.49,NNE,14,0.0,4.0,59,0.04,,---,0.17,VWS V14.01,2013-01-18 19:25:00,
2013-01-18 14:30:00,44.5,30.2,30.49,NNE,14,1.0,2.0,57,0.04,,---,0.17,VWS V14.01,2013-01-18 19:30:00,
2013-01-18 14:35:00,44.4,31.0,30.49,NNE,30,1.0,2.0,59,0.04,,---,0.17,VWS V14.01,2013-01-18 19:35:00,
2013-01-18 14:40:00,44.3,30.5,30.49,NNE,31,2.0,2.0,58,0.03,,---,0.17,VWS V14.01,2013-01-18 19:40:00,
2013-01-18 14:45:00,44.4,31.8,30.49,NNE,24,0.0,2.0,61,0.04,,---,0.18,VWS V14.01,2013-01-18 19:45:00,
2013-01-18 14:50:00,44.5,31.1,30.49,NNE,30,1.0,2.0,59,0.04,,---,0.18,VWS V14.01,2013-01-18 19:50:00,
2013-01-18 14:54:00,44.5,32.7,30.49,NNE,30,0.0,2.0,63,0.03,,---,0.18,VWS V14.01,2013-01-18 19:54:00,
2013-01-18 14:55:00,44.5,32.7,30.49,NNE,30,0.0,2.0,63,0.03,,---,0.18,VWS V14.01,2013-01-18 19:55:00,
2013-01-18 14:59:00,44.5,32.3,30.49,NNE,30,0.0,2.0,62,0.03,,---,0.18,VWS V14.01,2013-01-18 19:59:00,
2013-01-18 15:00:00,44.5,32.3,30.49,NNE,30,0.0,2.0,62,0.03,,---,0.18,VWS V14.01,2013-01-18 20:00:00,
2013-01-18 15:05:00,44.5,32.7,30.49,SSW,193,1.0,3.0,63,0.02,,---,0.18,VWS V14.01,2013-01-18 20:05:00,
2013-01-18 15:10:00,44.6,31.2,30.49,SSW,193,0.0,1.0,59,0.02,,---,0.18,VWS V14.01,2013-01-18 20:10:00,
2013-01-18 15:14:00,44.8,33.4,30.49,SSW,193,0.0,1.0,64,0.02,,---,0.18,VWS V14.01,2013-01-18 20:14:00,
2013-01-18 15:15:00,44.8,33.4,30.49,SSW,193,0.0,1.0,64,0.02,,---,0.18,VWS V14.01,2013-01-18 20:15:00,
2013-01-18 15:19:00,44.8,32.6,30.49,SSW,208,0.0,5.0,62,0.02,,---,0.18,VWS V14.01,2013-01-18 20:19:00,
2013-01-18 15:20:00,44.8,32.6,30.49,SSW,208,0.0,5.0,62,0.02,,---,0.18,VWS V14.01,2013-01-18 20:20:00,
2013-01-18 15:24:00,44.8,32.6,30.49,SSW,208,0.0,1.0,62,0.01,,---,0.18,VWS V14.01,2013-01-18 20:24:00,
2013-01-18 15:25:00,44.8,32.6,30.49,SSW,208,0.0,1.0,62,0.01,,---,0.18,VWS V14.01,2013-01-18 20:25:00,
2013-01-18 15:29:00,44.6,31.6,30.49,SSW,208,1.0,1.0,60,0.01,,---,0.18,VWS V14.01,2013-01-18 20:29:00,
2013-01-18 15:30:00,44.6,31.6,30.49,SSW,208,1.0,1.0,60,0.01,,---,0.18,VWS V14.01,2013-01-18 20:30:00,
2013-01-18 15:34:00,44.3,32.1,30.49,SSW,200,0.0,3.0,62,0.02,,---,0.19,VWS V14.01,2013-01-18 20:34:00,
2013-01-18 15:35:00,44.3,32.1,30.49,SSW,200,0.0,3.0,62,0.02,,---,0.19,VWS V14.01,2013-01-18 20:35:00,
2013-01-18 15:40:00,44.0,32.2,30.50,SSW,200,0.0,1.0,63,0.02,,---,0.19,VWS V14.01,2013-01-18 20:40:00,
2013-01-18 15:45:00,43.7,32.0,30.50,SSW,200,0.0,0.0,63,0.02,,---,0.19,VWS V14.01,2013-01-18 20:45:00,
2013-01-18 15:50:00,43.5,31.0,30.50,SSW,200,1.0,1.0,61,0.01,,---,0.19,VWS V14.01,2013-01-18 20:50:00,
2013-01-18 15:55:00,43.3,30.8,30.50,SSW,200,0.0,2.0,61,0.01,,---,0.19,VWS V14.01,2013-01-18 20:55:00,
2013-01-18 16:00:00,43.3,32.3,30.50,SSW,200,0.0,1.0,65,0.01,,---,0.19,VWS V14.01,2013-01-18 21:00:00,
2013-01-18 16:05:00,43.2,31.9,30.50,SSW,200,0.0,0.0,64,0.01,,---,0.19,VWS V14.01,2013-01-18 21:05:00,
2013-01-18 16:10:00,43.2,30.7,30.50,SSW,200,0.0,0.0,61,0.01,,---,0.19,VWS V14.01,2013-01-18 21:10:00,
2013-01-18 16:15:00,43.2,32.2,30.50,SSW,200,0.0,1.0,65,0.01,,---,0.19,VWS V14.01,2013-01-18 21:15:00,
2013-01-18 16:20:00,43.1,30.6,30.50,SSW,200,0.0,1.0,61,0.01,,---,0.19,VWS V14.01,2013-01-18 21:20:00,
2013-01-18 16:25:00,43.1,31.0,30.51,SSW,200,0.0,1.0,62,0.01,,---,0.19,VWS V14.01,2013-01-18 21:25:00,
2013-01-18 16:30:00,43.0,31.7,30.51,SSW,200,1.0,1.0,64,0.01,,---,0.19,VWS V14.01,2013-01-18 21:30:00,
2013-01-18 16:34:00,42.8,30.7,30.51,SSW,205,0.0,3.0,62,0.01,,---,0.19,VWS V14.01,2013-01-18 21:34:00,
2013-01-18 16:35:00,42.8,30.7,30.51,SSW,205,0.0,3.0,62,0.01,,---,0.19,VWS V14.01,2013-01-18 21:35:00,
2013-01-18 16:40:00,42.6,31.3,30.51,SSW,205,0.0,0.0,64,0.00,,---,0.19,VWS V14.01,2013-01-18 21:40:00,
2013-01-18 16:45:00,42.4,30.7,30.51,SSW,205,0.0,0.0,63,0.00,,---,0.19,VWS V14.01,2013-01-18 21:45:00,
2013-01-18 16:50:00,42.2,30.5,30.51,SSW,205,0.0,2.0,63,0.00,,---,0.19,VWS V14.01,2013-01-18 21:50:00,
2013-01-18 16:55:00,42.1,31.6,30.51,SSW,205,0.0,0.0,66,0.00,,---,0.19,VWS V14.01,2013-01-18 21:55:00,
2013-01-18 17:00:00,41.9,30.6,30.51,SSW,205,0.0,0.0,64,0.00,,---,0.19,VWS V14.01,2013-01-18 22:00:00,
2013-01-18 17:05:00,41.7,30.8,30.52,SSW,205,0.0,0.0,65,0.00,,---,0.19,VWS V14.01,2013-01-18 22:05:00,
2013-01-18 17:10:00,41.5,31.0,30.52,SSW,205,0.0,0.0,66,0.00,,---,0.19,VWS V14.01,2013-01-18 22:10:00,
2013-01-18 17:15:00,41.3,30.4,30.52,SSW,205,0.0,0.0,65,0.00,,---,0.19,VWS V14.01,2013-01-18 22:15:00,
2013-01-18 17:19:00,41.1,30.2,30.52,SSW,205,0.0,0.0,65,0.00,,---,0.19,VWS V14.01,2013-01-18 22:19:00,
2013-01-18 17:20:00,41.1,30.2,30.52,SSW,205,0.0,0.0,65,0.00,,---,0.19,VWS V14.01,2013-01-18 22:20:00,
2013-01-18 17:24:00,41.0,30.1,30.53,SSW,205,0.0,0.0,65,0.00,,---,0.19,VWS V14.01,2013-01-18 22:24:00,
2013-01-18 17:25:00,41.0,30.1,30.53,SSW,205,0.0,0.0,65,0.00,,---,0.19,VWS V14.01,2013-01-18 22:25:00,
2013-01-18 17:30:00,40.8,30.3,30.53,SSW,205,0.0,0.0,66,0.00,,---,0.19,VWS V14.01,2013-01-18 22:30:00,
2013-01-18 17:35:00,40.6,30.1,30.53,SSW,205,0.0,0.0,66,0.00,,---,0.19,VWS V14.01,2013-01-18 22:35:00,
2013-01-18 17:40:00,40.4,30.3,30.53,SSW,205,0.0,0.0,67,0.00,,---,0.19,VWS V14.01,2013-01-18 22:40:00,
2013-01-18 17:45:00,40.2,30.5,30.53,SSW,205,0.0,0.0,68,0.00,,---,0.19,VWS V14.01,2013-01-18 22:45:00,
2013-01-18 17:50:00,39.8,30.8,30.53,SSW,205,0.0,0.0,70,0.00,,---,0.19,VWS V14.01,2013-01-18 22:50:00,
2013-01-18 17:55:00,39.4,31.5,30.53,SSW,205,0.0,0.0,73,0.00,,---,0.19,VWS V14.01,2013-01-18 22:55:00,
2013-01-18 18:00:00,39.0,30.8,30.54,SSW,205,0.0,0.0,72,0.00,,---,0.19,VWS V14.01,2013-01-18 23:00:00,
2013-01-18 18:04:00,38.4,30.9,30.54,SSW,205,0.0,0.0,74,0.00,,---,0.19,VWS V14.01,2013-01-18 23:04:00,
2013-01-18 18:05:00,38.4,30.9,30.54,SSW,205,0.0,0.0,74,0.00,,---,0.19,VWS V14.01,2013-01-18 23:05:00,
2013-01-18 18:10:00,38.0,31.1,30.54,SSW,205,0.0,0.0,76,0.00,,---,0.19,VWS V14.01,2013-01-18 23:10:00,
2013-01-18 18:15:00,37.7,31.8,30.54,SSW,205,0.0,0.0,79,0.00,,---,0.19,VWS V14.01,2013-01-18 23:15:00,
2013-01-18 18:19:00,37.2,31.9,30.54,SSW,205,0.0,0.0,81,0.00,,---,0.19,VWS V14.01,2013-01-18 23:19:00,
2013-01-18 18:20:00,37.2,31.9,30.54,SSW,205,0.0,0.0,81,0.00,,---,0.19,VWS V14.01,2013-01-18 23:20:00,
2013-01-18 18:24:00,36.8,31.8,30.54,SSW,205,0.0,0.0,82,0.00,,---,0.19,VWS V14.01,2013-01-18 23:24:00,
2013-01-18 18:25:00,36.8,31.8,30.54,SSW,205,0.0,0.0,82,0.00,,---,0.19,VWS V14.01,2013-01-18 23:25:00,
2013-01-18 18:29:00,36.5,31.5,30.54,SSW,205,0.0,0.0,82,0.00,,---,0.19,VWS V14.01,2013-01-18 23:29:00,
2013-01-18 18:30:00,36.5,31.5,30.54,SSW,205,0.0,0.0,82,0.00,,---,0.19,VWS V14.01,2013-01-18 23:30:00,
2013-01-18 18:34:00,36.1,31.5,30.55,SSW,205,0.0,0.0,83,0.00,,---,0.19,VWS V14.01,2013-01-18 23:34:00,
2013-01-18 18:35:00,36.1,31.5,30.55,SSW,205,0.0,0.0,83,0.00,,---,0.19,VWS V14.01,2013-01-18 23:35:00,
2013-01-18 18:40:00,35.7,31.4,30.55,SSW,205,0.0,0.0,84,0.00,,---,0.19,VWS V14.01,2013-01-18 23:40:00,
2013-01-18 18:45:00,35.4,31.4,30.55,SSW,205,0.0,0.0,85,0.00,,---,0.19,VWS V14.01,2013-01-18 23:45:00,
2013-01-18 18:50:00,35.1,31.0,30.55,SSW,205,0.0,0.0,85,0.00,,---,0.19,VWS V14.01,2013-01-18 23:50:00,
2013-01-18 18:55:00,31.8,29.8,30.55,SSW,205,0.0,0.0,92,0.00,,---,0.19,VWS V14.01,2013-01-18 23:55:00,
2013-01-18 18:59:00,34.4,30.9,30.55,SSW,205,0.0,0.0,87,0.00,,---,0.19,VWS V14.01,2013-01-18 23:59:00,
2013-01-18 19:00:00,34.4,30.9,30.55,SSW,205,0.0,0.0,87,0.00,,---,0.19,VWS V14.01,2013-01-19 00:00:00,
2013-01-18 19:04:00,34.1,30.9,30.55,SSW,205,0.0,0.0,88,0.00,,---,0.19,VWS V14.01,2013-01-19 00:04:00,
2013-01-18 19:05:00,34.1,30.9,30.55,SSW,205,0.0,0.0,88,0.00,,---,0.19,VWS V14.01,2013-01-19 00:05:00,
2013-01-18 19:09:00,33.6,30.7,30.55,SSW,205,0.0,0.0,89,0.00,,---,0.19,VWS V14.01,2013-01-19 00:09:00,
2013-01-18 19:10:00,33.6,30.7,30.55,SSW,205,0.0,0.0,89,0.00,,---,0.19,VWS V14.01,2013-01-19 00:10:00,
2013-01-18 19:14:00,33.4,30.5,30.55,SSW,205,0.0,0.0,89,0.00,,---,0.19,VWS V14.01,2013-01-19 00:14:00,
2013-01-18 19:15:00,33.4,30.5,30.55,SSW,205,0.0,0.0,89,0.00,,---,0.19,VWS V14.01,2013-01-19 00:15:00,
2013-01-18 19:20:00,33.2,30.6,30.55,SSW,205,0.0,0.0,90,0.00,,---,0.19,VWS V14.01,2013-01-19 00:20:00,
2013-01-18 19:25:00,33.0,30.4,30.55,SSW,205,0.0,0.0,90,0.00,,---,0.19,VWS V14.01,2013-01-19 00:25:00,
2013-01-18 19:30:00,32.7,30.1,30.55,SSW,205,0.0,0.0,90,0.00,,---,0.19,VWS V14.01,2013-01-19 00:30:00,
2013-01-18 19:35:00,32.6,30.3,30.55,SSW,205,0.0,0.0,91,0.00,,---,0.19,VWS V14.01,2013-01-19 00:35:00,
2013-01-18 19:40:00,32.4,30.1,30.55,SSW,205,0.0,0.0,91,0.00,,---,0.19,VWS V14.01,2013-01-19 00:40:00,
2013-01-18 19:45:00,32.1,29.8,30.55,SSW,205,0.0,0.0,91,0.00,,---,0.19,VWS V14.01,2013-01-19 00:45:00,
2013-01-18 19:50:00,31.9,29.6,30.54,SSW,205,0.0,0.0,91,0.00,,---,0.19,VWS V14.01,2013-01-19 00:50:00,
2013-01-18 19:55:00,31.8,29.8,30.55,SSW,205,0.0,0.0,92,0.00,,---,0.19,VWS V14.01,2013-01-19 00:55:00,
2013-01-18 20:00:00,31.6,29.5,30.54,SSW,205,0.0,0.0,92,0.00,,---,0.19,VWS V14.01,2013-01-19 01:00:00,
2013-01-18 20:05:00,31.5,29.5,30.54,SSW,205,0.0,0.0,92,0.00,,---,0.19,VWS V14.01,2013-01-19 01:05:00,
2013-01-18 20:10:00,31.3,29.2,30.54,SSW,205,0.0,0.0,92,0.00,,---,0.19,VWS V14.01,2013-01-19 01:10:00,
2013-01-18 20:15:00,31.2,29.1,30.54,SSW,205,0.0,1.0,92,0.00,,---,0.19,VWS V14.01,2013-01-19 01:15:00,
2013-01-18 20:20:00,31.1,29.3,30.54,SSW,205,0.0,0.0,93,0.00,,---,0.19,VWS V14.01,2013-01-19 01:20:00,
2013-01-18 20:25:00,31.0,29.2,30.54,SSW,205,0.0,0.0,93,0.00,,---,0.19,VWS V14.01,2013-01-19 01:25:00,
2013-01-18 20:30:00,30.8,29.0,30.54,SSW,205,0.0,0.0,93,0.00,,---,0.19,VWS V14.01,2013-01-19 01:30:00,
2013-01-18 20:34:00,30.7,28.9,30.54,SSW,205,0.0,0.0,93,0.00,,---,0.19,VWS V14.01,2013-01-19 01:34:00,
2013-01-18 20:35:00,30.7,28.9,30.54,SSW,205,0.0,0.0,93,0.00,,---,0.19,VWS V14.01,2013-01-19 01:35:00,
2013-01-18 20:40:00,30.7,29.2,30.54,SSW,205,0.0,0.0,94,0.00,,---,0.19,VWS V14.01,2013-01-19 01:40:00,
2013-01-18 20:45:00,30.6,28.8,30.54,SSW,205,0.0,0.0,93,0.00,,---,0.19,VWS V14.01,2013-01-19 01:45:00,
2013-01-18 20:49:00,30.4,28.9,30.54,SSW,205,0.0,0.0,94,0.00,,---,0.19,VWS V14.01,2013-01-19 01:49:00,
2013-01-18 20:50:00,30.4,28.9,30.54,SSW,205,0.0,0.0,94,0.00,,---,0.19,VWS V14.01,2013-01-19 01:50:00,
2013-01-18 20:54:00,30.3,28.8,30.54,SSW,205,0.0,0.0,94,0.00,,---,0.19,VWS V14.01,2013-01-19 01:54:00,
2013-01-18 20:55:00,30.3,28.8,30.54,SSW,205,0.0,0.0,94,0.00,,---,0.19,VWS V14.01,2013-01-19 01:55:00,
2013-01-18 20:59:00,30.1,28.6,30.54,SSW,205,0.0,0.0,94,0.00,,---,0.19,VWS V14.01,2013-01-19 01:59:00,
2013-01-18 21:00:00,30.1,28.6,30.54,SSW,205,0.0,0.0,94,0.00,,---,0.19,VWS V14.01,2013-01-19 02:00:00,
2013-01-18 21:05:00,30.0,28.5,30.54,SSW,205,0.0,0.0,94,0.00,,---,0.19,VWS V14.01,2013-01-19 02:05:00,
2013-01-18 21:10:00,30.0,28.5,30.54,SSW,205,0.0,0.0,94,0.00,,---,0.19,VWS V14.01,2013-01-19 02:10:00,
2013-01-18 21:15:00,29.9,28.4,30.54,SSW,205,0.0,0.0,94,0.00,,---,0.19,VWS V14.01,2013-01-19 02:15:00,
2013-01-18 21:19:00,29.9,28.4,30.54,SSW,205,0.0,0.0,94,0.00,,---,0.19,VWS V14.01,2013-01-19 02:19:00,
2013-01-18 21:20:00,29.9,28.4,30.54,SSW,205,0.0,0.0,94,0.00,,---,0.19,VWS V14.01,2013-01-19 02:20:00,
2013-01-18 21:25:00,29.9,28.4,30.53,SSW,205,0.0,0.0,94,0.00,,---,0.19,VWS V14.01,2013-01-19 02:25:00,
2013-01-18 21:30:00,29.8,28.3,30.54,SSW,205,0.0,0.0,94,0.00,,---,0.19,VWS V14.01,2013-01-19 02:30:00,
2013-01-18 21:35:00,29.7,28.2,30.54,SSW,205,0.0,1.0,94,0.00,,---,0.19,VWS V14.01,2013-01-19 02:35:00,
2013-01-18 21:40:00,29.6,28.1,30.54,SSW,205,0.0,0.0,94,0.00,,---,0.19,VWS V14.01,2013-01-19 02:40:00,
2013-01-18 21:45:00,29.6,28.4,30.54,SSW,205,0.0,0.0,95,0.00,,---,0.19,VWS V14.01,2013-01-19 02:45:00,
2013-01-18 21:50:00,29.5,28.0,30.54,SSW,205,0.0,0.0,94,0.00,,---,0.19,VWS V14.01,2013-01-19 02:50:00,
2013-01-18 21:54:00,29.5,28.0,30.54,SSW,205,0.0,0.0,94,0.00,,---,0.19,VWS V14.01,2013-01-19 02:54:00,
2013-01-18 21:55:00,29.5,28.0,30.54,SSW,205,0.0,0.0,94,0.00,,---,0.19,VWS V14.01,2013-01-19 02:55:00,
2013-01-18 21:59:00,29.4,27.9,30.54,SSW,205,0.0,0.0,94,0.00,,---,0.19,VWS V14.01,2013-01-19 02:59:00,
2013-01-18 22:00:00,29.4,27.9,30.54,SSW,205,0.0,0.0,94,0.00,,---,0.19,VWS V14.01,2013-01-19 03:00:00,
2013-01-18 22:04:00,29.4,28.1,30.54,SSW,205,0.0,0.0,95,0.00,,---,0.19,VWS V14.01,2013-01-19 03:04:00,
2013-01-18 22:05:00,29.4,28.1,30.54,SSW,205,0.0,0.0,95,0.00,,---,0.19,VWS V14.01,2013-01-19 03:05:00,
2013-01-18 22:09:00,29.3,28.0,30.54,SSW,205,0.0,0.0,95,0.00,,---,0.19,VWS V14.01,2013-01-19 03:09:00,
2013-01-18 22:10:00,29.3,28.0,30.54,SSW,205,0.0,0.0,95,0.00,,---,0.19,VWS V14.01,2013-01-19 03:10:00,
2013-01-18 22:15:00,29.3,28.0,30.54,SSW,205,0.0,0.0,95,0.00,,---,0.19,VWS V14.01,2013-01-19 03:15:00,
2013-01-18 22:20:00,29.1,27.9,30.54,SSW,205,0.0,0.0,95,0.00,,---,0.19,VWS V14.01,2013-01-19 03:20:00,
2013-01-18 22:25:00,28.9,27.4,30.54,SSW,205,0.0,0.0,94,0.00,,---,0.19,VWS V14.01,2013-01-19 03:25:00,
2013-01-18 22:30:00,28.9,27.4,30.54,SSW,205,0.0,0.0,94,0.00,,---,0.19,VWS V14.01,2013-01-19 03:30:00,
2013-01-18 22:35:00,28.8,27.5,30.54,SSW,205,0.0,0.0,95,0.00,,---,0.19,VWS V14.01,2013-01-19 03:35:00,
2013-01-18 22:40:00,28.7,27.5,30.53,SSW,205,0.0,0.0,95,0.00,,---,0.19,VWS V14.01,2013-01-19 03:40:00,
2013-01-18 22:45:00,28.6,27.4,30.54,SSW,205,0.0,0.0,95,0.00,,---,0.19,VWS V14.01,2013-01-19 03:45:00,
2013-01-18 22:50:00,28.6,27.4,30.53,SSW,205,0.0,0.0,95,0.00,,---,0.19,VWS V14.01,2013-01-19 03:50:00,
2013-01-18 22:55:00,28.5,27.2,30.53,SSW,205,0.0,1.0,95,0.00,,---,0.19,VWS V14.01,2013-01-19 03:55:00,
2013-01-18 23:00:00,28.4,27.1,30.54,SSW,205,0.0,0.0,95,0.00,,---,0.19,VWS V14.01,2013-01-19 04:00:00,
2013-01-18 23:05:00,28.4,27.1,30.53,SSW,205,0.0,0.0,95,0.00,,---,0.19,VWS V14.01,2013-01-19 04:05:00,
2013-01-18 23:09:00,28.3,27.0,30.53,SSW,205,0.0,0.0,95,0.00,,---,0.19,VWS V14.01,2013-01-19 04:09:00,
2013-01-18 23:10:00,28.3,27.0,30.53,SSW,205,0.0,0.0,95,0.00,,---,0.19,VWS V14.01,2013-01-19 04:10:00,
2013-01-18 23:15:00,28.3,27.0,30.54,SSW,205,0.0,0.0,95,0.00,,---,0.19,VWS V14.01,2013-01-19 04:15:00,
2013-01-18 23:20:00,28.3,27.0,30.53,SSW,205,0.0,0.0,95,0.00,,---,0.19,VWS V14.01,2013-01-19 04:20:00,
2013-01-18 23:25:00,28.1,26.9,30.53,SSW,205,0.0,0.0,95,0.00,,---,0.19,VWS V14.01,2013-01-19 04:25:00,
2013-01-18 23:30:00,28.0,26.8,30.53,SSW,205,0.0,0.0,95,0.00,,---,0.19,VWS V14.01,2013-01-19 04:30:00,
2013-01-18 23:35:00,28.0,26.8,30.53,SSW,205,0.0,0.0,95,0.00,,---,0.19,VWS V14.01,2013-01-19 04:35:00,
2013-01-18 23:40:00,27.9,26.7,30.53,SSW,205,0.0,0.0,95,0.00,,---,0.19,VWS V14.01,2013-01-19 04:40:00,
2013-01-18 23:45:00,27.9,26.7,30.52,SSW,205,0.0,0.0,95,0.00,,---,0.19,VWS V14.01,2013-01-19 04:45:00,
2013-01-18 23:50:00,27.9,26.7,30.52,SSW,205,0.0,0.0,95,0.00,,---,0.19,VWS V14.01,2013-01-19 04:50:00,
2013-01-18 23:55:00,27.8,26.6,30.52,SSW,205,0.0,0.0,95,0.00,,---,0.19,VWS V14.01,2013-01-19 04:55:00,